createdAt,value
2023-01-30T00:00:05.612Z,-0.87
2023-01-30T00:05:07.192Z,-0.90
2023-01-30T00:10:09.225Z,-0.88
2023-01-30T00:15:10.050Z,-0.94
2023-01-30T00:20:11.549Z,-0.89
2023-01-30T00:25:12.424Z,-0.83
2023-01-30T00:30:13.740Z,-0.98
2023-01-30T00:35:14.608Z,-1.03
2023-01-30T00:40:16.432Z,-0.96
2023-01-30T00:45:36.028Z,-0.97
2023-01-30T00:50:42.906Z,-1.01
2023-01-30T00:55:45.975Z,-1.02
2023-01-30T01:00:46.845Z,-1.05
2023-01-30T01:05:48.213Z,-1.04
2023-01-30T01:10:49.039Z,-0.98
2023-01-30T01:15:49.952Z,-1.00
2023-01-30T01:20:50.789Z,-1.08
2023-01-30T01:25:51.537Z,-1.10
2023-01-30T01:30:52.402Z,-0.99
2023-01-30T01:35:56.669Z,-1.00
2023-01-30T01:41:05.307Z,-1.10
2023-01-30T01:46:17.833Z,-1.11
2023-01-30T01:51:33.053Z,-0.90
2023-01-30T01:56:38.625Z,-0.89
2023-01-30T02:01:39.693Z,-0.77
2023-01-30T02:06:42.719Z,-0.76
2023-01-30T02:11:50.153Z,-0.68
2023-01-30T02:16:50.893Z,-0.60
2023-01-30T02:24:45.116Z,-0.54
2023-01-30T02:30:11.455Z,-0.48
2023-01-30T02:35:40.281Z,-0.47
2023-01-30T02:41:26.715Z,-0.37
2023-01-30T02:47:00.217Z,-0.28
2023-01-30T02:52:02.665Z,-0.23
2023-01-30T02:57:03.550Z,-0.19
2023-01-30T03:05:21.965Z,-0.14
2023-01-30T03:10:40.960Z,0.04
2023-01-30T03:15:55.171Z,0.02
2023-01-30T03:20:56.284Z,0.12
2023-01-30T03:25:58.243Z,0.15
2023-01-30T03:30:59.103Z,0.14
2023-01-30T03:36:00.145Z,0.24
2023-01-30T03:41:03.362Z,0.29
2023-01-30T03:46:04.519Z,0.34
2023-01-30T03:51:05.479Z,0.32
2023-01-30T03:56:06.320Z,0.34
2023-01-30T04:01:08.327Z,0.34
2023-01-30T04:06:09.298Z,0.45
2023-01-30T04:11:10.264Z,0.42
2023-01-30T04:16:23.351Z,0.52
2023-01-30T04:22:55.636Z,0.49
2023-01-30T04:27:56.904Z,0.48
2023-01-30T04:33:04.472Z,0.53
2023-01-30T04:38:05.270Z,0.48
2023-01-30T04:43:06.541Z,0.55
2023-01-30T04:49:41.114Z,0.55
2023-01-30T04:54:42.170Z,0.61
2023-01-30T04:59:43.030Z,0.64
2023-01-30T05:04:44.980Z,0.70
2023-01-30T05:09:45.771Z,0.68
2023-01-30T05:14:47.144Z,0.66
2023-01-30T05:19:47.947Z,0.70
2023-01-30T05:24:48.738Z,0.75
2023-01-30T05:29:49.464Z,0.75
2023-01-30T05:34:50.257Z,0.46
2023-01-30T05:39:51.255Z,0.35
2023-01-30T05:44:52.085Z,0.41
2023-01-30T05:49:52.796Z,0.44
2023-01-30T05:54:53.597Z,0.45
2023-01-30T05:59:54.328Z,0.48
2023-01-30T06:04:55.259Z,0.27
2023-01-30T06:09:55.971Z,-0.05
2023-01-30T06:14:57.923Z,-0.24
2023-01-30T06:19:58.632Z,-0.27
2023-01-30T06:24:59.423Z,-0.14
2023-01-30T06:30:00.299Z,-0.19
2023-01-30T06:35:01.353Z,-0.12
2023-01-30T06:40:02.275Z,-0.15
2023-01-30T06:45:04.100Z,-0.04
2023-01-30T06:50:04.945Z,0.11
2023-01-30T06:55:07.249Z,0.10
2023-01-30T07:00:11.462Z,0.34
2023-01-30T07:05:13.599Z,0.52
2023-01-30T07:10:14.661Z,0.69
2023-01-30T07:15:15.798Z,0.75
2023-01-30T07:20:16.780Z,0.82
2023-01-30T07:25:22.493Z,0.84
2023-01-30T07:30:24.336Z,0.90
2023-01-30T07:35:28.161Z,0.92
2023-01-30T07:40:29.095Z,1.08
2023-01-30T07:45:44.110Z,1.07
2023-01-30T07:50:45.906Z,1.01
2023-01-30T07:55:46.982Z,1.04
2023-01-30T08:00:47.896Z,1.04
2023-01-30T08:05:49.405Z,1.07
2023-01-30T08:10:50.472Z,1.10
2023-01-30T08:15:51.661Z,1.15
2023-01-30T08:20:56.693Z,1.12
2023-01-30T08:25:59.379Z,1.15
2023-01-30T08:31:00.536Z,1.23
2023-01-30T08:36:01.381Z,1.26
2023-01-30T08:41:04.938Z,1.23
2023-01-30T08:46:05.960Z,1.31
2023-01-30T08:51:06.806Z,1.41
2023-01-30T08:56:07.582Z,1.42
2023-01-30T09:01:08.747Z,1.56
2023-01-30T09:06:09.568Z,1.65
2023-01-30T09:11:11.643Z,1.64
2023-01-30T09:16:12.573Z,1.74
2023-01-30T09:21:14.118Z,1.76
2023-01-30T09:26:14.938Z,1.86
2023-01-30T09:31:15.938Z,1.87
2023-01-30T09:36:16.862Z,2.03
2023-01-30T09:44:03.001Z,2.07
2023-01-30T09:49:29.535Z,2.24
2023-01-30T09:54:35.622Z,2.41
2023-01-30T09:59:55.192Z,2.48
2023-01-30T10:05:01.725Z,2.53
2023-01-30T10:11:08.943Z,2.57
2023-01-30T10:16:21.694Z,2.67
2023-01-30T10:29:44.870Z,2.96
2023-01-30T10:34:50.879Z,3.04
2023-01-30T10:40:46.442Z,3.33
2023-01-30T10:46:19.294Z,3.72
2023-01-30T10:52:20.730Z,3.31
2023-01-30T10:58:18.826Z,4.32
2023-01-30T11:03:52.299Z,3.73
2023-01-30T11:08:54.646Z,3.22
2023-01-30T11:14:07.676Z,2.89
2023-01-30T11:19:20.144Z,2.69
2023-01-30T11:24:28.820Z,2.55
2023-01-30T11:29:32.578Z,2.57
2023-01-30T11:34:33.346Z,2.63
2023-01-30T11:39:34.689Z,2.79
2023-01-30T11:44:39.511Z,2.69
2023-01-30T11:49:55.859Z,2.61
2023-01-30T11:56:46.639Z,2.59
2023-01-30T12:01:47.797Z,2.68
2023-01-30T12:07:05.151Z,2.63
2023-01-30T12:12:32.654Z,2.49
2023-01-30T12:22:50.358Z,2.70
2023-01-30T12:28:35.490Z,2.98
2023-01-30T12:33:36.737Z,2.74
2023-01-30T12:42:46.992Z,2.59
2023-01-30T12:51:10.458Z,2.49
2023-01-30T12:56:32.990Z,2.57
2023-01-30T13:03:07.640Z,2.56
2023-01-30T13:08:41.986Z,2.70
2023-01-30T13:13:56.224Z,3.13
2023-01-30T13:19:21.170Z,3.51
2023-01-30T13:24:51.082Z,4.17
2023-01-30T13:29:53.455Z,4.01
2023-01-30T13:34:56.310Z,4.17
2023-01-30T13:40:03.352Z,4.29
2023-01-30T13:45:09.242Z,3.97
2023-01-30T13:50:44.797Z,3.82
2023-01-30T13:56:01.669Z,3.74
2023-01-30T14:01:02.699Z,3.64
2023-01-30T14:06:09.760Z,3.54
2023-01-30T14:13:05.130Z,3.58
2023-01-30T14:18:22.160Z,3.57
2023-01-30T14:23:34.132Z,3.59
2023-01-30T14:28:44.185Z,3.70
2023-01-30T14:33:50.682Z,3.81
2023-01-30T14:39:36.822Z,3.68
2023-01-30T14:45:01.188Z,3.65
2023-01-30T14:50:02.075Z,3.59
2023-01-30T14:55:03.880Z,3.63
2023-01-30T15:00:18.616Z,3.66
2023-01-30T15:05:33.810Z,3.76
2023-01-30T15:11:03.863Z,3.80
2023-01-30T15:17:08.719Z,3.65
2023-01-30T15:22:27.603Z,3.32
2023-01-30T15:28:11.382Z,3.03
2023-01-30T15:33:29.494Z,3.04
2023-01-30T15:38:33.540Z,3.06
2023-01-30T15:43:44.513Z,3.10
2023-01-30T15:49:22.932Z,3.10
2023-01-30T15:54:23.716Z,3.13
2023-01-30T15:59:39.387Z,3.04
2023-01-30T16:04:40.338Z,2.97
2023-01-30T16:09:42.663Z,3.11
2023-01-30T16:14:46.377Z,2.93
2023-01-30T16:19:47.217Z,2.79
2023-01-30T16:24:53.197Z,2.73
2023-01-30T16:29:59.711Z,2.62
2023-01-30T16:35:30.516Z,2.59
2023-01-30T16:40:45.200Z,2.63
2023-01-30T16:47:22.939Z,2.45
2023-01-30T16:52:46.541Z,2.48
2023-01-30T16:58:02.254Z,2.43
2023-01-30T17:03:07.488Z,2.43
2023-01-30T17:08:53.770Z,2.47
2023-01-30T17:14:19.049Z,2.43
2023-01-30T17:19:22.576Z,2.48
2023-01-30T17:24:24.669Z,2.49
2023-01-30T17:29:41.353Z,2.52
2023-01-30T17:34:43.176Z,2.58
2023-01-30T17:39:44.286Z,2.63
2023-01-30T17:44:45.144Z,2.64
2023-01-30T17:49:45.880Z,2.71
2023-01-30T17:54:46.915Z,2.74
2023-01-30T17:59:47.668Z,2.70
2023-01-30T18:04:48.429Z,2.72
2023-01-30T18:09:49.189Z,2.72
2023-01-30T18:14:49.954Z,2.75
2023-01-30T18:19:50.945Z,2.71
2023-01-30T18:24:51.789Z,2.63
2023-01-30T18:29:52.583Z,2.74
2023-01-30T18:34:53.342Z,2.71
2023-01-30T18:39:54.163Z,2.68
2023-01-30T18:44:55.380Z,2.69
2023-01-30T18:49:56.154Z,2.84
2023-01-30T18:54:57.003Z,2.86
2023-01-30T18:59:57.751Z,2.82
2023-01-30T19:04:58.508Z,2.78
2023-01-30T19:09:59.248Z,2.73
2023-01-30T19:15:00.811Z,2.73
2023-01-30T19:20:04.010Z,2.77
2023-01-30T19:25:05.795Z,2.71
2023-01-30T19:30:07.724Z,2.73
2023-01-30T19:35:09.004Z,2.78
2023-01-30T19:40:11.096Z,2.74
2023-01-30T19:45:11.825Z,2.86
2023-01-30T19:50:13.149Z,2.81
2023-01-30T19:55:17.809Z,2.90
2023-01-30T20:00:20.783Z,2.82
2023-01-30T20:05:21.780Z,2.91
2023-01-30T20:10:22.517Z,2.85
2023-01-30T20:15:23.273Z,2.91
2023-01-30T20:20:24.042Z,2.82
2023-01-30T20:25:24.943Z,2.79
2023-01-30T20:30:25.696Z,2.76
2023-01-30T20:35:26.431Z,2.66
2023-01-30T20:40:27.210Z,2.64
2023-01-30T20:45:27.985Z,2.66
2023-01-30T20:50:29.098Z,2.74
2023-01-30T20:55:29.916Z,2.84
2023-01-30T21:00:30.664Z,2.71
2023-01-30T21:05:31.413Z,2.83
2023-01-30T21:10:36.077Z,2.71
2023-01-30T21:15:36.973Z,2.63
2023-01-30T21:20:38.266Z,2.52
2023-01-30T21:25:39.173Z,2.67
2023-01-30T21:30:41.174Z,2.69
2023-01-30T21:35:41.947Z,2.61
2023-01-30T21:41:10.141Z,2.53
2023-01-30T21:46:15.835Z,2.50
2023-01-30T21:51:16.564Z,2.37
2023-01-30T21:56:17.573Z,2.37
2023-01-30T22:01:18.376Z,2.41
2023-01-30T22:06:19.908Z,2.37
2023-01-30T22:11:20.676Z,2.40
2023-01-30T22:16:25.287Z,2.30
2023-01-30T22:21:28.468Z,2.20
2023-01-30T22:26:29.454Z,2.18
2023-01-30T22:31:35.465Z,2.16
2023-01-30T22:36:37.181Z,2.02
2023-01-30T22:41:38.667Z,2.00
2023-01-30T22:46:40.505Z,1.93
2023-01-30T22:51:42.787Z,1.94
2023-01-30T22:56:45.733Z,1.90
2023-01-30T23:01:49.816Z,1.84
2023-01-30T23:06:51.435Z,1.83
2023-01-30T23:12:13.549Z,1.87
2023-01-30T23:17:34.257Z,1.68
2023-01-30T23:22:35.529Z,1.73
2023-01-30T23:27:36.733Z,1.66
2023-01-30T23:32:38.084Z,1.62
2023-01-30T23:37:57.405Z,1.60
2023-01-30T23:42:58.237Z,1.51
2023-01-30T23:47:59.000Z,1.53
2023-01-30T23:52:59.756Z,1.47
2023-01-30T23:58:01.130Z,1.52
